sensor_id;sensor_type;location;lat;lon;timestamp;pressure;altitude;pressure_sealevel;temperature;humidity
58686;BME280;44465;53.206;-6.106;2023-03-31T00:00:32;98351.72;;;20.96;52.30
58686;BME280;44465;53.206;-6.106;2023-03-31T00:02:57;98350.31;;;20.92;52.20
58686;BME280;44465;53.206;-6.106;2023-03-31T00:05:26;98370.56;;;21.04;52.46
58686;BME280;44465;53.206;-6.106;2023-03-31T00:07:56;98272.38;;;20.48;52.55
58686;BME280;44465;53.206;-6.106;2023-03-31T00:10:29;98312.88;;;20.72;52.48
58686;BME280;44465;53.206;-6.106;2023-03-31T00:13:00;98291.19;;;20.66;52.18
58686;BME280;44465;53.206;-6.106;2023-03-31T00:15:26;98328.63;;;20.85;52.28
58686;BME280;44465;53.206;-6.106;2023-03-31T00:17:52;98308.25;;;20.74;52.50
58686;BME280;44465;53.206;-6.106;2023-03-31T00:20:18;98273.78;;;20.61;52.24
58686;BME280;44465;53.206;-6.106;2023-03-31T00:22:44;98296.00;;;20.72;52.34
58686;BME280;44465;53.206;-6.106;2023-03-31T00:25:11;98351.56;;;21.07;52.46
58686;BME280;44465;53.206;-6.106;2023-03-31T00:27:37;98349.59;;;21.10;52.29
58686;BME280;44465;53.206;-6.106;2023-03-31T00:30:03;98283.34;;;20.74;52.39
58686;BME280;44465;53.206;-6.106;2023-03-31T00:32:29;98294.59;;;20.77;52.39
58686;BME280;44465;53.206;-6.106;2023-03-31T00:34:55;98252.94;;;20.55;52.42
58686;BME280;44465;53.206;-6.106;2023-03-31T00:37:20;98269.53;;;20.69;52.23
58686;BME280;44465;53.206;-6.106;2023-03-31T00:39:47;98339.16;;;21.06;52.55
58686;BME280;44465;53.206;-6.106;2023-03-31T00:42:13;98315.25;;;20.95;52.43
58686;BME280;44465;53.206;-6.106;2023-03-31T00:47:53;98310.34;;;20.90;52.54
58686;BME280;44465;53.206;-6.106;2023-03-31T00:50:26;98324.69;;;20.99;52.55
58686;BME280;44465;53.206;-6.106;2023-03-31T00:52:56;98310.19;;;20.92;52.38
58686;BME280;44465;53.206;-6.106;2023-03-31T00:55:25;98323.56;;;21.02;52.93
58686;BME280;44465;53.206;-6.106;2023-03-31T00:57:53;98328.75;;;21.03;52.53
58686;BME280;44465;53.206;-6.106;2023-03-31T01:00:19;98317.66;;;20.98;52.66
58686;BME280;44465;53.206;-6.106;2023-03-31T01:03:01;98326.22;;;21.02;52.74
58686;BME280;44465;53.206;-6.106;2023-03-31T01:05:42;98321.84;;;21.01;52.53
58686;BME280;44465;53.206;-6.106;2023-03-31T01:08:09;98292.47;;;20.81;52.75
58686;BME280;44465;53.206;-6.106;2023-03-31T01:10:44;98265.31;;;20.66;52.48
58686;BME280;44465;53.206;-6.106;2023-03-31T01:13:12;98270.06;;;20.72;52.40
58686;BME280;44465;53.206;-6.106;2023-03-31T01:15:39;98237.06;;;20.54;52.40
58686;BME280;44465;53.206;-6.106;2023-03-31T01:18:07;98308.91;;;20.96;52.65
58686;BME280;44465;53.206;-6.106;2023-03-31T01:31:20;98296.25;;;20.98;52.54
58686;BME280;44465;53.206;-6.106;2023-03-31T01:34:10;98297.22;;;20.97;52.65
58686;BME280;44465;53.206;-6.106;2023-03-31T01:45:00;98265.03;;;20.69;52.43
58686;BME280;44465;53.206;-6.106;2023-03-31T01:47:36;98263.34;;;20.68;52.61
58686;BME280;44465;53.206;-6.106;2023-03-31T01:50:30;98300.19;;;20.94;52.82
58686;BME280;44465;53.206;-6.106;2023-03-31T01:53:17;98296.53;;;20.95;52.77
58686;BME280;44465;53.206;-6.106;2023-03-31T01:58:37;98288.09;;;20.90;52.53
58686;BME280;44465;53.206;-6.106;2023-03-31T02:01:12;98289.22;;;20.87;52.46
58686;BME280;44465;53.206;-6.106;2023-03-31T02:03:45;98289.47;;;20.94;52.53
58686;BME280;44465;53.206;-6.106;2023-03-31T02:06:20;98281.34;;;20.86;52.70
58686;BME280;44465;53.206;-6.106;2023-03-31T02:08:57;98292.31;;;20.92;52.65
58686;BME280;44465;53.206;-6.106;2023-03-31T02:11:24;98273.91;;;20.80;52.82
58686;BME280;44465;53.206;-6.106;2023-03-31T02:13:54;98289.75;;;20.91;52.88
58686;BME280;44465;53.206;-6.106;2023-03-31T02:16:23;98276.28;;;20.83;52.66
58686;BME280;44465;53.206;-6.106;2023-03-31T02:18:53;98262.91;;;20.73;52.76
58686;BME280;44465;53.206;-6.106;2023-03-31T02:21:28;98268.13;;;20.74;52.77
58686;BME280;44465;53.206;-6.106;2023-03-31T02:23:55;98282.34;;;20.85;52.69
58686;BME280;44465;53.206;-6.106;2023-03-31T02:26:27;98289.75;;;20.91;52.99
58686;BME280;44465;53.206;-6.106;2023-03-31T02:28:56;98268.84;;;20.76;52.96
58686;BME280;44465;53.206;-6.106;2023-03-31T02:31:57;98278.94;;;20.83;52.80
58686;BME280;44465;53.206;-6.106;2023-03-31T02:34:25;98271.78;;;20.83;52.88
58686;BME280;44465;53.206;-6.106;2023-03-31T02:36:52;98269.25;;;20.82;52.95
58686;BME280;44465;53.206;-6.106;2023-03-31T02:39:25;98228.19;;;20.53;52.81
58686;BME280;44465;53.206;-6.106;2023-03-31T02:41:53;98279.38;;;20.88;53.04
58686;BME280;44465;53.206;-6.106;2023-03-31T02:44:19;98193.06;;;20.38;53.08
58686;BME280;44465;53.206;-6.106;2023-03-31T02:46:46;98280.22;;;20.88;52.67
58686;BME280;44465;53.206;-6.106;2023-03-31T02:49:12;98288.09;;;20.90;53.10
58686;BME280;44465;53.206;-6.106;2023-03-31T02:54:35;98222.41;;;20.48;52.92
58686;BME280;44465;53.206;-6.106;2023-03-31T02:57:16;98271.53;;;20.76;53.04
58686;BME280;44465;53.206;-6.106;2023-03-31T03:11:21;98283.31;;;20.84;53.10
58686;BME280;44465;53.206;-6.106;2023-03-31T03:14:11;98263.03;;;20.71;52.89
58686;BME280;44465;53.206;-6.106;2023-03-31T03:16:49;98279.66;;;20.85;52.72
58686;BME280;44465;53.206;-6.106;2023-03-31T03:19:20;98279.94;;;20.82;53.19
58686;BME280;44465;53.206;-6.106;2023-03-31T03:21:46;98266.41;;;20.73;53.03
58686;BME280;44465;53.206;-6.106;2023-03-31T03:24:14;98278.25;;;20.81;52.94
58686;BME280;44465;53.206;-6.106;2023-03-31T03:26:40;98248.16;;;20.59;53.20
58686;BME280;44465;53.206;-6.106;2023-03-31T03:29:05;98276.88;;;20.76;52.97
58686;BME280;44465;53.206;-6.106;2023-03-31T03:31:31;98273.75;;;20.71;53.03
58686;BME280;44465;53.206;-6.106;2023-03-31T03:33:58;98199.13;;;20.21;53.14
58686;BME280;44465;53.206;-6.106;2023-03-31T03:36:23;98278.84;;;20.74;53.18
58686;BME280;44465;53.206;-6.106;2023-03-31T03:38:49;98218.38;;;20.34;52.92
58686;BME280;44465;53.206;-6.106;2023-03-31T03:41:15;98285.59;;;20.79;53.11
58686;BME280;44465;53.206;-6.106;2023-03-31T03:43:41;98281.91;;;20.70;52.97
58686;BME280;44465;53.206;-6.106;2023-03-31T03:46:06;98301.66;;;20.79;52.82
58686;BME280;44465;53.206;-6.106;2023-03-31T03:48:32;98208.53;;;20.25;52.83
58686;BME280;44465;53.206;-6.106;2023-03-31T03:51:01;98234.53;;;20.42;52.85
58686;BME280;44465;53.206;-6.106;2023-03-31T03:53:27;98220.63;;;20.29;53.02
58686;BME280;44465;53.206;-6.106;2023-03-31T03:55:52;98205.16;;;20.23;53.50
58686;BME280;44465;53.206;-6.106;2023-03-31T03:58:18;98303.03;;;20.83;52.77
58686;BME280;44465;53.206;-6.106;2023-03-31T04:00:44;98308.38;;;20.83;53.04
58686;BME280;44465;53.206;-6.106;2023-03-31T04:03:11;98233.56;;;20.34;53.27
58686;BME280;44465;53.206;-6.106;2023-03-31T04:05:36;98273.50;;;20.55;53.17
58686;BME280;44465;53.206;-6.106;2023-03-31T04:08:02;98290.91;;;20.69;53.07
58686;BME280;44465;53.206;-6.106;2023-03-31T04:10:29;98313.72;;;20.83;52.96
58686;BME280;44465;53.206;-6.106;2023-03-31T04:12:54;98260.56;;;20.50;53.15
58686;BME280;44465;53.206;-6.106;2023-03-31T04:15:20;98302.91;;;20.74;53.44
58686;BME280;44465;53.206;-6.106;2023-03-31T04:17:45;98273.50;;;20.55;52.96
58686;BME280;44465;53.206;-6.106;2023-03-31T04:20:16;98295.56;;;20.67;53.23
58686;BME280;44465;53.206;-6.106;2023-03-31T04:22:42;98268.41;;;20.52;53.07
58686;BME280;44465;53.206;-6.106;2023-03-31T04:25:12;98248.16;;;20.39;53.22
58686;BME280;44465;53.206;-6.106;2023-03-31T04:27:46;98297.41;;;20.66;53.09
58686;BME280;44465;53.206;-6.106;2023-03-31T04:30:22;98314.72;;;20.72;52.80
58686;BME280;44465;53.206;-6.106;2023-03-31T04:32:54;98301.06;;;20.65;53.26
58686;BME280;44465;53.206;-6.106;2023-03-31T04:35:21;98274.91;;;20.49;53.08
58686;BME280;44465;53.206;-6.106;2023-03-31T04:37:47;98328.09;;;20.72;53.36
58686;BME280;44465;53.206;-6.106;2023-03-31T04:40:13;98289.53;;;20.55;53.21
58686;BME280;44465;53.206;-6.106;2023-03-31T04:42:40;98317.25;;;20.64;53.24
58686;BME280;44465;53.206;-6.106;2023-03-31T04:45:05;98316.41;;;20.63;53.31
58686;BME280;44465;53.206;-6.106;2023-03-31T04:47:31;98316.97;;;20.67;53.16
58686;BME280;44465;53.206;-6.106;2023-03-31T04:49:57;98346.13;;;20.80;53.02
58686;BME280;44465;53.206;-6.106;2023-03-31T04:52:22;98337.41;;;20.77;53.25
58686;BME280;44465;53.206;-6.106;2023-03-31T04:54:48;98300.38;;;20.43;53.14
58686;BME280;44465;53.206;-6.106;2023-03-31T04:57:13;98342.72;;;20.68;53.25
58686;BME280;44465;53.206;-6.106;2023-03-31T04:59:39;98325.28;;;20.54;53.55
58686;BME280;44465;53.206;-6.106;2023-03-31T05:02:04;98359.06;;;20.74;53.26
58686;BME280;44465;53.206;-6.106;2023-03-31T05:04:30;98276.75;;;20.19;53.28
58686;BME280;44465;53.206;-6.106;2023-03-31T05:06:55;98339.63;;;20.53;53.27
58686;BME280;44465;53.206;-6.106;2023-03-31T05:09:21;98308.97;;;20.37;53.42
58686;BME280;44465;53.206;-6.106;2023-03-31T05:11:47;98276.19;;;20.15;53.20
58686;BME280;44465;53.206;-6.106;2023-03-31T05:14:12;98337.09;;;20.51;53.08
58686;BME280;44465;53.206;-6.106;2023-03-31T05:16:38;98374.84;;;20.77;53.19
58686;BME280;44465;53.206;-6.106;2023-03-31T05:19:03;98360.03;;;20.64;53.33
58686;BME280;44465;53.206;-6.106;2023-03-31T05:21:29;98359.59;;;20.58;53.10
58686;BME280;44465;53.206;-6.106;2023-03-31T05:23:56;98336.56;;;20.48;53.43
58686;BME280;44465;53.206;-6.106;2023-03-31T05:26:22;98383.38;;;20.71;53.19
58686;BME280;44465;53.206;-6.106;2023-03-31T05:28:53;98347.25;;;20.48;53.35
58686;BME280;44465;53.206;-6.106;2023-03-31T05:31:19;98399.91;;;20.76;53.44
58686;BME280;44465;53.206;-6.106;2023-03-31T05:33:44;98386.06;;;20.71;53.25
58686;BME280;44465;53.206;-6.106;2023-03-31T05:36:16;98401.59;;;20.77;53.09
58686;BME280;44465;53.206;-6.106;2023-03-31T05:38:42;98374.81;;;20.58;53.43
58686;BME280;44465;53.206;-6.106;2023-03-31T05:41:08;98315.84;;;20.20;53.22
58686;BME280;44465;53.206;-6.106;2023-03-31T05:43:36;98408.75;;;20.67;53.53
58686;BME280;44465;53.206;-6.106;2023-03-31T05:46:02;98344.13;;;20.23;53.36
58686;BME280;44465;53.206;-6.106;2023-03-31T05:48:27;98410.25;;;20.60;53.48
58686;BME280;44465;53.206;-6.106;2023-03-31T05:50:57;98431.53;;;20.71;53.35
58686;BME280;44465;53.206;-6.106;2023-03-31T05:53:24;98371.69;;;20.33;53.55
58686;BME280;44465;53.206;-6.106;2023-03-31T05:55:58;98413.94;;;20.59;53.51
58686;BME280;44465;53.206;-6.106;2023-03-31T05:58:24;98421.66;;;20.62;53.33
58686;BME280;44465;53.206;-6.106;2023-03-31T06:01:00;98431.66;;;20.60;53.56
58686;BME280;44465;53.206;-6.106;2023-03-31T06:03:26;98442.63;;;20.67;53.33
58686;BME280;44465;53.206;-6.106;2023-03-31T06:05:52;98441.81;;;20.66;53.44
58686;BME280;44465;53.206;-6.106;2023-03-31T06:08:19;98458.84;;;20.65;53.44
58686;BME280;44465;53.206;-6.106;2023-03-31T06:10:45;98388.84;;;20.21;53.24
58686;BME280;44465;53.206;-6.106;2023-03-31T06:13:10;98450.38;;;20.60;53.45
58686;BME280;44465;53.206;-6.106;2023-03-31T06:15:36;98412.78;;;20.32;53.16
58686;BME280;44465;53.206;-6.106;2023-03-31T06:18:02;98407.00;;;20.27;53.56
58686;BME280;44465;53.206;-6.106;2023-03-31T06:20:27;98422.63;;;20.32;53.41
58686;BME280;44465;53.206;-6.106;2023-03-31T06:22:53;98481.22;;;20.64;53.60
58686;BME280;44465;53.206;-6.106;2023-03-31T06:25:19;98500.38;;;20.69;53.38
58686;BME280;44465;53.206;-6.106;2023-03-31T06:27:44;98468.09;;;20.51;53.56
58686;BME280;44465;53.206;-6.106;2023-03-31T06:30:10;98407.66;;;20.09;53.63
58686;BME280;44465;53.206;-6.106;2023-03-31T06:32:36;98511.06;;;20.69;53.44
58686;BME280;44465;53.206;-6.106;2023-03-31T06:35:01;98448.78;;;20.28;53.45
58686;BME280;44465;53.206;-6.106;2023-03-31T06:37:27;98514.72;;;20.68;53.36
58686;BME280;44465;53.206;-6.106;2023-03-31T06:39:52;98432.72;;;20.18;53.73
58686;BME280;44465;53.206;-6.106;2023-03-31T06:42:18;98526.97;;;20.71;53.33
58686;BME280;44465;53.206;-6.106;2023-03-31T06:44:44;98433.69;;;20.17;53.30
58686;BME280;44465;53.206;-6.106;2023-03-31T06:47:10;98485.09;;;20.40;53.36
58686;BME280;44465;53.206;-6.106;2023-03-31T06:49:35;98496.09;;;20.47;53.47
58686;BME280;44465;53.206;-6.106;2023-03-31T06:52:01;98495.53;;;20.43;53.53
58686;BME280;44465;53.206;-6.106;2023-03-31T06:54:28;98489.03;;;20.36;53.30
58686;BME280;44465;53.206;-6.106;2023-03-31T06:56:53;98465.91;;;20.25;53.54
58686;BME280;44465;53.206;-6.106;2023-03-31T06:59:19;98475.53;;;20.28;53.36
58686;BME280;44465;53.206;-6.106;2023-03-31T07:01:44;98467.31;;;20.20;53.36
58686;BME280;44465;53.206;-6.106;2023-03-31T07:04:12;98549.31;;;20.60;53.52
58686;BME280;44465;53.206;-6.106;2023-03-31T07:06:38;98465.03;;;20.05;53.65
58686;BME280;44465;53.206;-6.106;2023-03-31T07:09:04;98458.81;;;20.05;53.53
58686;BME280;44465;53.206;-6.106;2023-03-31T07:11:30;98508.44;;;20.28;53.50
58686;BME280;44465;53.206;-6.106;2023-03-31T07:13:56;98478.25;;;20.07;53.70
58686;BME280;44465;53.206;-6.106;2023-03-31T07:16:21;98575.78;;;20.63;53.52
58686;BME280;44465;53.206;-6.106;2023-03-31T07:18:48;98505.59;;;20.20;53.57
58686;BME280;44465;53.206;-6.106;2023-03-31T07:21:14;98560.00;;;20.50;53.61
58686;BME280;44465;53.206;-6.106;2023-03-31T07:23:40;98556.88;;;20.45;53.30
58686;BME280;44465;53.206;-6.106;2023-03-31T07:26:06;98540.09;;;20.33;53.09
58686;BME280;44465;53.206;-6.106;2023-03-31T07:28:32;98557.28;;;20.40;53.30
58686;BME280;44465;53.206;-6.106;2023-03-31T07:30:57;98586.19;;;20.56;53.40
58686;BME280;44465;53.206;-6.106;2023-03-31T07:33:23;98616.34;;;20.68;53.48
58686;BME280;44465;53.206;-6.106;2023-03-31T07:35:48;98552.03;;;20.29;53.19
58686;BME280;44465;53.206;-6.106;2023-03-31T07:38:14;98577.69;;;20.41;53.37
58686;BME280;44465;53.206;-6.106;2023-03-31T07:40:44;98562.72;;;20.29;53.19
58686;BME280;44465;53.206;-6.106;2023-03-31T07:43:10;98614.59;;;20.57;53.18
58686;BME280;44465;53.206;-6.106;2023-03-31T07:45:38;98580.19;;;20.33;53.47
58686;BME280;44465;53.206;-6.106;2023-03-31T07:48:04;98597.94;;;20.44;53.34
58686;BME280;44465;53.206;-6.106;2023-03-31T07:50:30;98590.72;;;20.35;53.21
58686;BME280;44465;53.206;-6.106;2023-03-31T07:52:57;98623.03;;;20.53;53.40
58686;BME280;44465;53.206;-6.106;2023-03-31T07:55:23;98649.25;;;20.59;53.21
58686;BME280;44465;53.206;-6.106;2023-03-31T07:57:50;98576.75;;;20.21;53.56
58686;BME280;44465;53.206;-6.106;2023-03-31T08:00:16;98649.25;;;20.59;53.41
58686;BME280;44465;53.206;-6.106;2023-03-31T08:02:42;98578.16;;;20.15;53.55
58686;BME280;44465;53.206;-6.106;2023-03-31T08:05:11;98629.44;;;20.40;53.22
58686;BME280;44465;53.206;-6.106;2023-03-31T08:07:39;98688.22;;;20.83;52.99
58686;BME280;44465;53.206;-6.106;2023-03-31T08:10:14;98683.06;;;20.70;53.09
58686;BME280;44465;53.206;-6.106;2023-03-31T08:12:40;98620.94;;;20.25;53.40
58686;BME280;44465;53.206;-6.106;2023-03-31T08:15:06;98704.81;;;20.76;53.30
58686;BME280;44465;53.206;-6.106;2023-03-31T08:17:32;98696.69;;;20.67;53.39
58686;BME280;44465;53.206;-6.106;2023-03-31T08:19:58;98716.91;;;20.81;53.40
58686;BME280;44465;53.206;-6.106;2023-03-31T08:22:23;98673.03;;;20.62;53.68
58686;BME280;44465;53.206;-6.106;2023-03-31T08:24:49;98721.75;;;20.87;53.71
58686;BME280;44465;53.206;-6.106;2023-03-31T08:27:14;98674.69;;;20.53;54.02
58686;BME280;44465;53.206;-6.106;2023-03-31T08:29:41;98686.69;;;20.59;53.84
58686;BME280;44465;53.206;-6.106;2023-03-31T08:32:06;98673.66;;;20.44;54.21
58686;BME280;44465;53.206;-6.106;2023-03-31T08:34:32;98721.09;;;20.73;54.44
58686;BME280;44465;53.206;-6.106;2023-03-31T08:36:57;98672.09;;;20.42;54.22
58686;BME280;44465;53.206;-6.106;2023-03-31T08:39:23;98705.41;;;20.59;54.26
58686;BME280;44465;53.206;-6.106;2023-03-31T08:42:04;98687.75;;;20.46;54.20
58686;BME280;44465;53.206;-6.106;2023-03-31T08:44:39;98734.97;;;20.79;54.47
58686;BME280;44465;53.206;-6.106;2023-03-31T08:47:13;98728.03;;;20.76;54.42
58686;BME280;44465;53.206;-6.106;2023-03-31T08:49:44;98740.88;;;20.82;54.36
58686;BME280;44465;53.206;-6.106;2023-03-31T08:52:18;98728.41;;;20.71;54.17
58686;BME280;44465;53.206;-6.106;2023-03-31T08:54:51;98763.59;;;20.88;54.38
58686;BME280;44465;53.206;-6.106;2023-03-31T08:57:23;98768.94;;;20.88;54.19
58686;BME280;44465;53.206;-6.106;2023-03-31T08:59:49;98776.09;;;20.87;54.37
58686;BME280;44465;53.206;-6.106;2023-03-31T09:15:42;98799.75;;;20.82;54.11
58686;BME280;44465;53.206;-6.106;2023-03-31T09:18:29;98809.47;;;20.83;54.33
58686;BME280;44465;53.206;-6.106;2023-03-31T09:21:16;98808.75;;;20.81;54.05
58686;BME280;44465;53.206;-6.106;2023-03-31T09:26:31;98815.91;;;20.81;53.81
58686;BME280;44465;53.206;-6.106;2023-03-31T09:29:00;98813.63;;;20.76;54.17
58686;BME280;44465;53.206;-6.106;2023-03-31T09:31:28;98777.78;;;20.46;54.36
58686;BME280;44465;53.206;-6.106;2023-03-31T09:33:59;98780.59;;;20.44;54.06
58686;BME280;44465;53.206;-6.106;2023-03-31T09:36:26;98830.03;;;20.71;54.08
58686;BME280;44465;53.206;-6.106;2023-03-31T09:38:52;98823.53;;;20.64;53.98
58686;BME280;44465;53.206;-6.106;2023-03-31T09:41:18;98828.34;;;20.70;53.71
58686;BME280;44465;53.206;-6.106;2023-03-31T09:43:45;98751.56;;;20.19;53.73
58686;BME280;44465;53.206;-6.106;2023-03-31T09:46:30;98847.31;;;20.79;53.85
58686;BME280;44465;53.206;-6.106;2023-03-31T09:49:13;98855.19;;;20.80;53.79
58686;BME280;44465;53.206;-6.106;2023-03-31T09:51:43;98859.41;;;20.83;53.41
58686;BME280;44465;53.206;-6.106;2023-03-31T09:54:38;98869.41;;;20.81;53.49
58686;BME280;44465;53.206;-6.106;2023-03-31T09:57:22;98846.47;;;20.67;53.46
58686;BME280;44465;53.206;-6.106;2023-03-31T09:59:51;98849.44;;;20.64;53.73
58686;BME280;44465;53.206;-6.106;2023-03-31T10:02:35;98877.72;;;20.77;53.53
58686;BME280;44465;53.206;-6.106;2023-03-31T10:05:06;98859.72;;;20.68;53.79
58686;BME280;44465;53.206;-6.106;2023-03-31T10:07:42;98876.22;;;20.73;53.64
58686;BME280;44465;53.206;-6.106;2023-03-31T10:10:15;98842.44;;;20.51;53.31
58686;BME280;44465;53.206;-6.106;2023-03-31T10:12:50;98888.84;;;20.83;53.58
58686;BME280;44465;53.206;-6.106;2023-03-31T10:15:24;98876.22;;;20.73;53.55
58686;BME280;44465;53.206;-6.106;2023-03-31T10:17:50;98857.56;;;20.62;53.44
58686;BME280;44465;53.206;-6.106;2023-03-31T10:20:42;98915.94;;;20.89;53.58
58686;BME280;44465;53.206;-6.106;2023-03-31T10:23:23;98905.56;;;20.96;53.44
58686;BME280;44465;53.206;-6.106;2023-03-31T10:25:51;98911.25;;;21.03;53.94
58686;BME280;44465;53.206;-6.106;2023-03-31T10:28:19;98893.03;;;20.97;53.71
58686;BME280;44465;53.206;-6.106;2023-03-31T10:30:50;98863.25;;;20.69;53.70
58686;BME280;44465;53.206;-6.106;2023-03-31T10:33:21;98918.22;;;20.94;53.87
58686;BME280;44465;53.206;-6.106;2023-03-31T10:35:54;98886.94;;;20.73;54.05
58686;BME280;44465;53.206;-6.106;2023-03-31T10:38:31;98924.06;;;20.99;53.92
58686;BME280;44465;53.206;-6.106;2023-03-31T10:40:58;98893.88;;;20.76;53.92
58686;BME280;44465;53.206;-6.106;2023-03-31T10:43:42;98938.13;;;21.01;53.96
58686;BME280;44465;53.206;-6.106;2023-03-31T10:46:08;98948.19;;;21.09;54.00
58686;BME280;44465;53.206;-6.106;2023-03-31T10:48:39;98943.56;;;21.11;53.79
58686;BME280;44465;53.206;-6.106;2023-03-31T10:51:17;98953.44;;;21.11;53.67
58686;BME280;44465;53.206;-6.106;2023-03-31T10:53:47;98941.53;;;21.03;53.93
58686;BME280;44465;53.206;-6.106;2023-03-31T11:12:45;98987.50;;;21.08;53.90
58686;BME280;44465;53.206;-6.106;2023-03-31T11:42:56;99041.22;;;21.17;53.32
58686;BME280;44465;53.206;-6.106;2023-03-31T11:45:32;99036.84;;;21.16;53.46
58686;BME280;44465;53.206;-6.106;2023-03-31T11:48:03;99045.06;;;21.24;53.72
58686;BME280;44465;53.206;-6.106;2023-03-31T11:50:36;99027.66;;;21.30;54.42
58686;BME280;44465;53.206;-6.106;2023-03-31T11:53:20;99062.53;;;24.68;46.06
58686;BME280;44465;53.206;-6.106;2023-03-31T11:55:50;99062.88;;;23.70;47.70
58686;BME280;44465;53.206;-6.106;2023-03-31T12:00:48;99028.66;;;21.92;51.56
58686;BME280;44465;53.206;-6.106;2023-03-31T12:03:23;99077.63;;;22.04;51.58
58686;BME280;44465;53.206;-6.106;2023-03-31T12:06:05;98991.88;;;21.31;51.23
58686;BME280;44465;53.206;-6.106;2023-03-31T12:11:30;99074.19;;;21.71;51.78
58686;BME280;44465;53.206;-6.106;2023-03-31T12:17:18;99092.84;;;21.73;51.82
58686;BME280;44465;53.206;-6.106;2023-03-31T12:19:54;99091.41;;;21.68;51.63
58686;BME280;44465;53.206;-6.106;2023-03-31T12:22:33;99093.75;;;21.62;51.97
58686;BME280;44465;53.206;-6.106;2023-03-31T12:25:00;99103.63;;;21.61;52.22
58686;BME280;44465;53.206;-6.106;2023-03-31T12:27:40;99100.31;;;21.58;51.96
58686;BME280;44465;53.206;-6.106;2023-03-31T12:32:58;99108.41;;;21.46;52.23
58686;BME280;44465;53.206;-6.106;2023-03-31T12:41:11;99117.06;;;21.38;52.34
58686;BME280;44465;53.206;-6.106;2023-03-31T12:49:38;99135.34;;;21.33;52.32
58686;BME280;44465;53.206;-6.106;2023-03-31T12:52:17;99074.97;;;20.97;52.61
58686;BME280;44465;53.206;-6.106;2023-03-31T12:55:05;99113.25;;;21.20;52.47
58686;BME280;44465;53.206;-6.106;2023-03-31T12:57:35;99142.16;;;21.37;52.26
58686;BME280;44465;53.206;-6.106;2023-03-31T13:02:32;99136.59;;;21.29;52.41
58686;BME280;44465;53.206;-6.106;2023-03-31T13:04:58;99155.78;;;21.34;52.49
58686;BME280;44465;53.206;-6.106;2023-03-31T13:10:23;99159.72;;;21.30;52.68
58686;BME280;44465;53.206;-6.106;2023-03-31T13:13:00;99162.38;;;21.30;52.55
58686;BME280;44465;53.206;-6.106;2023-03-31T13:15:27;99158.25;;;21.26;52.45
58686;BME280;44465;53.206;-6.106;2023-03-31T13:17:57;99158.50;;;21.23;52.57
58686;BME280;44465;53.206;-6.106;2023-03-31T13:20:31;99159.47;;;21.22;52.46
58686;BME280;44465;53.206;-6.106;2023-03-31T13:28:36;99187.06;;;21.34;52.69
58686;BME280;44465;53.206;-6.106;2023-03-31T13:31:08;99139.56;;;21.03;52.56
58686;BME280;44465;53.206;-6.106;2023-03-31T13:33:35;99201.06;;;21.37;52.62
58686;BME280;44465;53.206;-6.106;2023-03-31T13:38:46;99212.00;;;21.34;52.63
58686;BME280;44465;53.206;-6.106;2023-03-31T13:44:26;99163.19;;;20.98;52.46
58686;BME280;44465;53.206;-6.106;2023-03-31T13:47:22;99217.16;;;21.26;52.49
58686;BME280;44465;53.206;-6.106;2023-03-31T13:55:35;99195.50;;;21.18;52.71
58686;BME280;44465;53.206;-6.106;2023-03-31T13:58:18;99232.00;;;21.30;52.74
58686;BME280;44465;53.206;-6.106;2023-03-31T14:05:58;99247.78;;;21.33;52.52
58686;BME280;44465;53.206;-6.106;2023-03-31T14:08:50;99237.84;;;21.24;52.83
58686;BME280;44465;53.206;-6.106;2023-03-31T14:11:28;99240.41;;;21.26;52.59
58686;BME280;44465;53.206;-6.106;2023-03-31T14:14:03;99235.44;;;21.21;52.69
58686;BME280;44465;53.206;-6.106;2023-03-31T14:16:53;99252.91;;;21.25;52.90
58686;BME280;44465;53.206;-6.106;2023-03-31T14:30:22;99270.56;;;21.28;52.23
58686;BME280;44465;53.206;-6.106;2023-03-31T14:35:41;99237.84;;;21.01;52.67
58686;BME280;44465;53.206;-6.106;2023-03-31T14:38:19;99186.16;;;20.67;52.70
58686;BME280;44465;53.206;-6.106;2023-03-31T14:40:47;99243.19;;;21.01;53.19
58686;BME280;44465;53.206;-6.106;2023-03-31T14:43:19;99195.03;;;20.67;52.74
58686;BME280;44465;53.206;-6.106;2023-03-31T14:46:06;99299.41;;;21.35;52.68
58686;BME280;44465;53.206;-6.106;2023-03-31T14:48:42;99258.78;;;21.07;52.70
58686;BME280;44465;53.206;-6.106;2023-03-31T14:51:14;99240.88;;;20.97;52.67
58686;BME280;44465;53.206;-6.106;2023-03-31T14:53:40;99222.44;;;20.82;52.66
58686;BME280;44465;53.206;-6.106;2023-03-31T14:56:16;99206.97;;;20.74;52.65
58686;BME280;44465;53.206;-6.106;2023-03-31T14:58:51;99238.34;;;20.95;52.70
58686;BME280;44465;53.206;-6.106;2023-03-31T15:01:29;99295.38;;;21.30;52.79
58686;BME280;44465;53.206;-6.106;2023-03-31T15:04:04;99307.34;;;21.37;52.91
58686;BME280;44465;53.206;-6.106;2023-03-31T15:06:31;99322.03;;;21.43;52.74
58686;BME280;44465;53.206;-6.106;2023-03-31T15:09:00;99285.06;;;21.14;52.86
58686;BME280;44465;53.206;-6.106;2023-03-31T15:11:27;99307.06;;;21.29;52.70
58686;BME280;44465;53.206;-6.106;2023-03-31T15:13:55;99273.13;;;21.06;52.58
58686;BME280;44465;53.206;-6.106;2023-03-31T15:16:33;99331.44;;;21.37;52.98
58686;BME280;44465;53.206;-6.106;2023-03-31T15:19:03;99315.38;;;21.26;52.85
58686;BME280;44465;53.206;-6.106;2023-03-31T15:21:31;99256.09;;;20.85;52.69
58686;BME280;44465;53.206;-6.106;2023-03-31T15:23:58;99263.91;;;20.88;52.84
58686;BME280;44465;53.206;-6.106;2023-03-31T15:26:36;99282.50;;;21.01;52.68
58686;BME280;44465;53.206;-6.106;2023-03-31T15:29:20;99286.75;;;20.92;52.85
58686;BME280;44465;53.206;-6.106;2023-03-31T15:31:47;99287.34;;;20.96;52.69
58686;BME280;44465;53.206;-6.106;2023-03-31T15:34:28;99358.31;;;21.35;52.96
58686;BME280;44465;53.206;-6.106;2023-03-31T15:36:57;99357.22;;;21.38;52.61
58686;BME280;44465;53.206;-6.106;2023-03-31T15:39:29;99366.56;;;21.44;52.90
58686;BME280;44465;53.206;-6.106;2023-03-31T15:41:57;99368.78;;;21.38;52.92
58686;BME280;44465;53.206;-6.106;2023-03-31T15:44:42;99344.91;;;21.24;52.58
58686;BME280;44465;53.206;-6.106;2023-03-31T15:47:28;99316.19;;;21.03;52.51
58686;BME280;44465;53.206;-6.106;2023-03-31T15:49:56;99380.22;;;21.41;52.99